KKN weather

Kirkenes Airport (Høybuktmoen)
Kirkenes, Finnmark, Norway

Public forecast

Using degrees Celsius for public forecast. Weather courtesy of forecast.io.

Current aviation weather report (METAR) for Kirkenes Airport (Høybuktmoen)

Retrieved 2020/05/27 15:20 UTC (22 minutes ago):

ENKR 271520Z 29004KT 9999 BKN047 12/03 Q1016 RMK WIND 731FT 29005KT

Aviation forecast (TAF) for Kirkenes Airport (Høybuktmoen)

Forecast is more than 12 hours old.

Retrieved 2017/08/31 21:36 UTC (3 years ago):

TAF TAF ENKR 312300Z 3121/0109 29005KT 9999 FEW020 SCT040